Time;durP1;ratioP1;P1;durP2;ratioP2;P2;SDS_P1;SDS_P2;PMS_P1;PMS_P2;Temp;Humidity;BMP_temperature;BMP_pressure;BME280_temperature;BME280_humidity;BME280_pressure;Samples;Min_cycle;Max_cycle;Signal;HPM_P1;HPM_P2
2023/01/09 00:01:15;;;;;;;4.65;1.10;;;;;;;;;;6308401;22;20028;-83
2023/01/09 00:03:41;;;;;;;3.40;1.27;;;;;;;;;;6337577;22;20023;-83
2023/01/09 00:06:08;;;;;;;7.43;1.30;;;;;;;;;;6337573;22;20023;-84
2023/01/09 00:08:34;;;;;;;4.03;1.15;;;;;;;;;;6308605;22;20028;-83
2023/01/09 00:11:03;;;;;;;3.45;1.17;;;;;;;;;;6336735;22;20064;-84
2023/01/09 00:13:29;;;;;;;3.67;0.98;;;;;;;;;;6309209;22;20019;-83
2023/01/09 00:15:56;;;;;;;9.50;1.30;;;;;;;;;;6337343;22;20034;-84
2023/01/09 00:18:22;;;;;;;4.55;2.05;;;;;;;;;;6335593;22;20031;-84
2023/01/09 00:20:48;;;;;;;2.90;1.00;;;;;;;;;;6335404;22;20029;-84
2023/01/09 00:23:15;;;;;;;3.80;1.10;;;;;;;;;;6336828;22;20057;-84
2023/01/09 00:25:44;;;;;;;6.05;1.52;;;;;;;;;;6336492;22;20026;-83
2023/01/09 00:28:10;;;;;;;5.55;1.30;;;;;;;;;;6336607;22;20051;-83
2023/01/09 00:30:37;;;;;;;4.88;1.25;;;;;;;;;;6307949;22;20027;-84
2023/01/09 00:33:03;;;;;;;5.55;1.40;;;;;;;;;;6310178;22;20027;-83
2023/01/09 00:35:29;;;;;;;4.25;1.30;;;;;;;;;;6310156;22;20476;-83
2023/01/09 00:37:56;;;;;;;4.35;1.40;;;;;;;;;;6336301;22;20034;-84
2023/01/09 00:40:22;;;;;;;6.13;1.58;;;;;;;;;;6336166;22;20103;-84
2023/01/09 00:42:52;;;;;;;6.07;1.30;;;;;;;;;;6336705;22;20023;-83
2023/01/09 00:45:27;;;;;;;5.38;1.65;;;;;;;;;;6336404;22;20094;-84
2023/01/09 00:47:55;;;;;;;5.22;1.60;;;;;;;;;;6335218;22;20023;-83
2023/01/09 00:50:23;;;;;;;4.00;1.45;;;;;;;;;;6336932;22;20051;-83
2023/01/09 00:52:50;;;;;;;6.45;1.50;;;;;;;;;;6337141;22;20094;-83
2023/01/09 00:55:17;;;;;;;7.85;1.63;;;;;;;;;;6337216;22;20019;-83
2023/01/09 00:57:43;;;;;;;6.35;1.95;;;;;;;;;;6307950;22;20106;-83
2023/01/09 01:00:10;;;;;;;6.38;1.40;;;;;;;;;;6335625;22;20034;-84
2023/01/09 01:02:36;;;;;;;7.00;1.73;;;;;;;;;;6337069;22;20513;-83
2023/01/09 01:07:48;;;;;;;3.65;1.30;;;;;;;;;;6337610;22;20027;-84
2023/01/09 01:10:16;;;;;;;5.82;1.52;;;;;;;;;;6337237;22;20023;-83
2023/01/09 01:12:43;;;;;;;4.43;1.33;;;;;;;;;;6337229;22;20061;-83
2023/01/09 01:15:09;;;;;;;6.72;2.00;;;;;;;;;;6337644;22;20106;-83
2023/01/09 01:17:36;;;;;;;5.20;1.77;;;;;;;;;;6309339;22;20090;-83
2023/01/09 01:20:04;;;;;;;4.90;1.63;;;;;;;;;;6309668;22;20023;-83
2023/01/09 01:22:30;;;;;;;6.63;1.52;;;;;;;;;;6337352;22;20571;-83
2023/01/09 01:24:57;;;;;;;5.45;1.80;;;;;;;;;;6338034;22;20038;-84
2023/01/09 01:27:23;;;;;;;3.40;1.30;;;;;;;;;;6338212;22;20511;-83
2023/01/09 01:29:50;;;;;;;7.22;1.77;;;;;;;;;;6338401;22;20110;-83
2023/01/09 01:32:16;;;;;;;7.68;1.92;;;;;;;;;;6310081;22;20019;-83
2023/01/09 01:34:43;;;;;;;5.40;2.13;;;;;;;;;;6338346;22;20027;-83
2023/01/09 01:37:12;;;;;;;6.00;2.20;;;;;;;;;;6336930;22;20496;-83
2023/01/09 01:39:38;;;;;;;7.53;1.88;;;;;;;;;;6337145;22;20069;-83
2023/01/09 01:42:04;;;;;;;4.63;2.10;;;;;;;;;;6336802;22;20027;-83
2023/01/09 01:44:49;;;;;;;7.80;2.35;;;;;;;;;;6337735;22;20031;-83
2023/01/09 01:47:17;;;;;;;8.30;2.45;;;;;;;;;;6337279;22;20077;-83
2023/01/09 01:49:43;;;;;;;9.65;2.70;;;;;;;;;;6337464;22;20586;-83
2023/01/09 01:52:10;;;;;;;6.47;2.78;;;;;;;;;;6338105;22;20030;-83
2023/01/09 01:54:36;;;;;;;5.63;3.10;;;;;;;;;;6337844;22;20051;-83
2023/01/09 01:57:04;;;;;;;7.72;2.63;;;;;;;;;;6337129;22;20023;-83
2023/01/09 01:59:40;;;;;;;6.80;3.30;;;;;;;;;;6335884;22;20519;-83
2023/01/09 02:02:07;;;;;;;7.65;3.20;;;;;;;;;;6337179;22;20578;-83
2023/01/09 02:04:35;;;;;;;7.32;3.33;;;;;;;;;;6338170;22;20028;-84
2023/01/09 02:07:03;;;;;;;9.20;3.28;;;;;;;;;;6337234;22;20020;-83
2023/01/09 02:09:30;;;;;;;7.45;3.30;;;;;;;;;;6309644;22;20025;-83
2023/01/09 02:11:57;;;;;;;10.10;3.58;;;;;;;;;;6337015;22;20028;-83
2023/01/09 02:14:25;;;;;;;10.02;3.13;;;;;;;;;;6337330;22;20159;-83
2023/01/09 02:16:55;;;;;;;6.88;3.10;;;;;;;;;;6308956;22;20016;-83
2023/01/09 02:19:39;;;;;;;10.23;3.53;;;;;;;;;;6336747;22;20023;-84
2023/01/09 02:22:26;;;;;;;9.05;3.67;;;;;;;;;;6337471;22;20262;-83
2023/01/09 02:25:28;;;;;;;7.80;3.67;;;;;;;;;;6337157;22;20023;-84
2023/01/09 02:27:57;;;;;;;9.32;4.05;;;;;;;;;;6335293;22;20020;-84
2023/01/09 02:30:23;;;;;;;9.30;4.18;;;;;;;;;;6337068;22;20023;-83
2023/01/09 02:32:57;;;;;;;13.48;4.32;;;;;;;;;;6336761;22;20034;-83
2023/01/09 02:35:23;;;;;;;7.32;3.72;;;;;;;;;;6337897;22;20102;-83
2023/01/09 02:38:02;;;;;;;8.00;3.75;;;;;;;;;;6336230;22;21243;-83
2023/01/09 02:40:33;;;;;;;11.82;3.92;;;;;;;;;;6309777;22;20020;-83
2023/01/09 02:43:01;;;;;;;8.50;4.10;;;;;;;;;;6337293;22;20555;-83
2023/01/09 02:45:27;;;;;;;7.68;3.70;;;;;;;;;;6338028;22;20125;-84
2023/01/09 02:47:54;;;;;;;10.07;3.65;;;;;;;;;;6337272;22;20027;-83
2023/01/09 02:50:22;;;;;;;8.02;3.50;;;;;;;;;;6336957;22;20070;-83
2023/01/09 02:52:55;;;;;;;10.13;3.90;;;;;;;;;;6336164;22;20065;-83
2023/01/09 02:55:54;;;;;;;7.60;3.70;;;;;;;;;;6336056;22;20019;-84
2023/01/09 02:58:43;;;;;;;7.70;3.78;;;;;;;;;;6268159;22;20472;-84
2023/01/09 03:01:36;;;;;;;6.38;3.38;;;;;;;;;;6309911;22;20023;-83
2023/01/09 03:04:21;;;;;;;7.28;3.38;;;;;;;;;;6337738;22;20368;-83
2023/01/09 03:07:14;;;;;;;11.20;3.53;;;;;;;;;;6336848;22;20035;-83
2023/01/09 03:09:41;;;;;;;9.40;4.10;;;;;;;;;;6329491;22;20038;-83
2023/01/09 03:12:13;;;;;;;7.97;3.17;;;;;;;;;;6337245;22;20030;-83
2023/01/09 03:14:42;;;;;;;7.53;3.10;;;;;;;;;;6309089;22;20019;-83
2023/01/09 03:17:10;;;;;;;9.35;2.95;;;;;;;;;;6336350;22;20023;-83
2023/01/09 03:19:37;;;;;;;8.00;3.35;;;;;;;;;;6335988;22;20023;-83
2023/01/09 03:22:03;;;;;;;8.15;3.13;;;;;;;;;;6336554;22;20020;-84
2023/01/09 03:24:30;;;;;;;8.60;3.25;;;;;;;;;;6336059;22;20436;-83
2023/01/09 03:26:56;;;;;;;7.20;3.30;;;;;;;;;;6333291;22;20070;-83
2023/01/09 03:29:25;;;;;;;8.80;3.50;;;;;;;;;;6336058;22;20019;-83
2023/01/09 03:31:54;;;;;;;7.05;3.10;;;;;;;;;;6336987;22;20529;-83
2023/01/09 03:34:20;;;;;;;7.57;2.85;;;;;;;;;;6337235;22;20076;-83
2023/01/09 03:36:46;;;;;;;7.40;3.20;;;;;;;;;;6335716;22;21132;-83
2023/01/09 03:39:13;;;;;;;8.38;2.83;;;;;;;;;;6309112;22;20050;-83
2023/01/09 03:41:39;;;;;;;6.57;2.88;;;;;;;;;;6309259;22;20305;-83
2023/01/09 03:44:05;;;;;;;7.45;3.10;;;;;;;;;;6336939;22;20023;-83
2023/01/09 03:46:32;;;;;;;9.07;2.92;;;;;;;;;;6336643;22;20527;-83
2023/01/09 03:48:58;;;;;;;8.35;3.03;;;;;;;;;;6335893;22;20023;-83
2023/01/09 03:51:24;;;;;;;8.48;3.17;;;;;;;;;;6336674;22;20067;-84
2023/01/09 03:53:51;;;;;;;9.48;3.08;;;;;;;;;;6308347;22;20035;-83
2023/01/09 03:56:17;;;;;;;11.60;3.58;;;;;;;;;;6336581;22;20070;-83
2023/01/09 03:58:43;;;;;;;7.65;2.67;;;;;;;;;;6336475;22;20208;-83
2023/01/09 04:01:13;;;;;;;15.05;3.05;;;;;;;;;;6336411;22;20054;-84
2023/01/09 04:03:39;;;;;;;12.55;3.17;;;;;;;;;;6336353;22;20464;-84
2023/01/09 04:06:06;;;;;;;15.35;2.95;;;;;;;;;;6309268;22;20027;-84
2023/01/09 04:08:32;;;;;;;10.50;2.92;;;;;;;;;;6334803;22;20023;-83
2023/01/09 04:10:58;;;;;;;9.23;3.10;;;;;;;;;;6336347;22;20025;-83
2023/01/09 04:13:25;;;;;;;9.77;2.92;;;;;;;;;;6336316;22;20114;-83
2023/01/09 04:15:51;;;;;;;7.97;2.80;;;;;;;;;;6337008;22;20034;-83
2023/01/09 04:18:17;;;;;;;9.50;2.67;;;;;;;;;;6308740;22;20032;-83
2023/01/09 04:20:46;;;;;;;11.27;2.75;;;;;;;;;;6336148;22;20024;-83
2023/01/09 04:23:12;;;;;;;7.97;2.55;;;;;;;;;;6336194;22;20038;-83
2023/01/09 04:25:38;;;;;;;8.98;2.53;;;;;;;;;;6336471;22;20033;-84
2023/01/09 04:28:05;;;;;;;7.72;2.47;;;;;;;;;;6333034;22;20022;-84
2023/01/09 04:30:32;;;;;;;10.02;2.58;;;;;;;;;;6306394;22;20115;-83
2023/01/09 04:32:58;;;;;;;9.05;2.83;;;;;;;;;;6306692;22;20027;-83
2023/01/09 04:35:24;;;;;;;9.90;2.50;;;;;;;;;;6336939;22;20019;-83
2023/01/09 04:37:51;;;;;;;7.05;2.80;;;;;;;;;;6335535;22;20015;-83
2023/01/09 04:40:19;;;;;;;9.27;2.55;;;;;;;;;;6309220;22;20035;-83
2023/01/09 04:42:46;;;;;;;10.40;2.33;;;;;;;;;;6337997;22;20061;-83
2023/01/09 04:45:14;;;;;;;12.95;2.47;;;;;;;;;;6337642;22;20034;-83
2023/01/09 04:47:41;;;;;;;8.82;2.33;;;;;;;;;;6337606;22;20221;-83
2023/01/09 04:50:08;;;;;;;8.73;2.03;;;;;;;;;;6336702;22;20085;-83
2023/01/09 04:52:34;;;;;;;9.65;2.20;;;;;;;;;;6337543;22;20521;-84
2023/01/09 04:55:04;;;;;;;12.50;2.42;;;;;;;;;;6336822;22;20106;-83
2023/01/09 04:57:30;;;;;;;7.18;2.00;;;;;;;;;;6335716;22;20011;-84
2023/01/09 04:59:57;;;;;;;8.57;2.42;;;;;;;;;;6336219;22;20022;-83
2023/01/09 05:02:23;;;;;;;10.95;2.17;;;;;;;;;;6308262;22;20021;-83
2023/01/09 05:04:49;;;;;;;6.60;2.17;;;;;;;;;;6337387;22;20454;-83
2023/01/09 05:07:16;;;;;;;5.40;1.70;;;;;;;;;;6336788;22;20081;-83
2023/01/09 05:09:43;;;;;;;10.30;2.10;;;;;;;;;;6337082;22;20054;-83
2023/01/09 05:12:09;;;;;;;9.70;2.47;;;;;;;;;;6336492;22;20468;-84
2023/01/09 05:14:36;;;;;;;7.38;2.00;;;;;;;;;;6336920;22;20540;-83
2023/01/09 05:17:02;;;;;;;6.78;2.20;;;;;;;;;;6335839;22;20107;-84
2023/01/09 05:19:29;;;;;;;8.90;1.85;;;;;;;;;;6335534;22;20027;-84
2023/01/09 05:21:55;;;;;;;6.25;1.73;;;;;;;;;;6336567;22;20073;-84
2023/01/09 05:24:21;;;;;;;4.93;1.70;;;;;;;;;;6335827;22;20019;-83
2023/01/09 05:26:48;;;;;;;14.05;2.20;;;;;;;;;;6336298;22;20038;-83
2023/01/09 05:29:16;;;;;;;8.77;1.80;;;;;;;;;;6335173;22;20019;-83
2023/01/09 05:31:43;;;;;;;8.70;2.20;;;;;;;;;;6336695;22;20019;-84
2023/01/09 05:34:09;;;;;;;6.57;2.17;;;;;;;;;;6336638;22;20023;-84
2023/01/09 05:36:35;;;;;;;6.82;1.90;;;;;;;;;;6337137;22;20062;-83
2023/01/09 05:39:02;;;;;;;6.05;1.70;;;;;;;;;;6335301;22;20034;-83
2023/01/09 05:41:28;;;;;;;9.52;1.92;;;;;;;;;;6308021;22;20067;-84
2023/01/09 05:43:55;;;;;;;7.63;1.90;;;;;;;;;;6336870;22;20150;-84
2023/01/09 05:46:21;;;;;;;6.95;1.77;;;;;;;;;;6336700;22;20030;-83
2023/01/09 05:48:48;;;;;;;7.10;2.03;;;;;;;;;;6335977;22;20023;-83
2023/01/09 05:51:14;;;;;;;10.50;2.33;;;;;;;;;;6336907;22;20023;-83
2023/01/09 05:53:40;;;;;;;12.40;2.53;;;;;;;;;;6337668;22;20026;-84
2023/01/09 05:56:07;;;;;;;9.48;2.47;;;;;;;;;;6309418;22;20024;-83
2023/01/09 05:58:36;;;;;;;5.32;1.98;;;;;;;;;;6341090;22;20472;-84
2023/01/09 06:01:04;;;;;;;8.98;2.25;;;;;;;;;;6336055;22;20022;-83
2023/01/09 06:03:31;;;;;;;7.90;2.03;;;;;;;;;;6309534;22;20115;-83
2023/01/09 06:05:57;;;;;;;10.30;2.28;;;;;;;;;;6336271;22;20031;-82
2023/01/09 06:08:23;;;;;;;7.47;2.33;;;;;;;;;;6334640;22;20026;-82
2023/01/09 06:10:50;;;;;;;6.88;2.25;;;;;;;;;;6335588;22;20452;-82
2023/01/09 06:13:16;;;;;;;6.47;2.40;;;;;;;;;;6336703;22;20038;-83
2023/01/09 06:15:43;;;;;;;7.53;2.20;;;;;;;;;;6337444;22;20058;-82
2023/01/09 06:18:09;;;;;;;8.75;2.25;;;;;;;;;;6336769;22;20509;-82
2023/01/09 06:20:35;;;;;;;9.60;2.65;;;;;;;;;;6336159;22;20487;-83
2023/01/09 06:23:02;;;;;;;8.05;2.40;;;;;;;;;;6336375;22;20029;-84
2023/01/09 06:25:28;;;;;;;7.22;2.13;;;;;;;;;;6336600;22;20023;-82
2023/01/09 06:27:55;;;;;;;9.95;2.65;;;;;;;;;;6335884;22;20467;-82
2023/01/09 06:30:21;;;;;;;10.30;2.10;;;;;;;;;;6336763;22;20023;-84
2023/01/09 06:32:48;;;;;;;7.28;2.25;;;;;;;;;;6335857;22;20027;-84
2023/01/09 06:35:19;;;;;;;7.50;1.92;;;;;;;;;;6307855;22;20494;-83
2023/01/09 06:37:46;;;;;;;10.68;2.67;;;;;;;;;;6335577;22;20569;-82
2023/01/09 06:40:13;;;;;;;7.88;2.30;;;;;;;;;;6335121;22;20054;-83
2023/01/09 06:42:46;;;;;;;10.10;2.10;;;;;;;;;;6307637;22;20033;-83
2023/01/09 06:45:13;;;;;;;6.65;2.10;;;;;;;;;;6307093;22;20452;-83
2023/01/09 06:47:39;;;;;;;8.38;2.20;;;;;;;;;;6334023;22;20104;-83
2023/01/09 06:50:08;;;;;;;7.82;2.13;;;;;;;;;;6308479;22;20548;-84
2023/01/09 06:52:35;;;;;;;10.30;2.35;;;;;;;;;;6308493;22;20030;-83
2023/01/09 06:55:01;;;;;;;6.68;2.60;;;;;;;;;;6336774;22;20015;-83
2023/01/09 06:57:28;;;;;;;10.85;2.70;;;;;;;;;;6335765;22;20026;-83
2023/01/09 06:59:54;;;;;;;6.50;2.28;;;;;;;;;;6334798;22;20027;-83
2023/01/09 07:02:21;;;;;;;8.15;2.00;;;;;;;;;;6334110;22;20475;-83
2023/01/09 07:04:47;;;;;;;14.80;2.00;;;;;;;;;;6335830;22;20999;-83
2023/01/09 07:07:17;;;;;;;9.32;2.55;;;;;;;;;;6333877;22;20657;-84
2023/01/09 07:09:43;;;;;;;13.80;2.83;;;;;;;;;;6335426;22;20683;-83
2023/01/09 07:12:09;;;;;;;5.80;2.22;;;;;;;;;;6334967;22;20050;-83
2023/01/09 07:14:36;;;;;;;11.18;2.58;;;;;;;;;;6336898;22;20558;-83
2023/01/09 07:17:02;;;;;;;10.13;2.47;;;;;;;;;;6339338;22;20553;-84
2023/01/09 07:19:28;;;;;;;7.45;2.80;;;;;;;;;;6340967;22;20038;-83
2023/01/09 07:21:55;;;;;;;9.18;2.10;;;;;;;;;;6336623;22;20058;-84
2023/01/09 07:24:22;;;;;;;5.97;1.92;;;;;;;;;;6338483;22;20031;-84
2023/01/09 07:26:48;;;;;;;10.10;2.60;;;;;;;;;;6334813;22;20075;-85
2023/01/09 07:29:15;;;;;;;9.30;2.75;;;;;;;;;;6312265;22;20862;-83
2023/01/09 07:31:41;;;;;;;12.73;2.60;;;;;;;;;;6336582;22;20034;-84
2023/01/09 07:34:07;;;;;;;12.38;2.92;;;;;;;;;;6340799;22;20015;-85
2023/01/09 07:36:34;;;;;;;10.18;3.00;;;;;;;;;;6337093;22;20029;-83
2023/01/09 07:39:00;;;;;;;9.80;2.90;;;;;;;;;;6338803;22;20034;-84
2023/01/09 07:41:26;;;;;;;11.35;3.00;;;;;;;;;;6337791;22;20023;-82
2023/01/09 07:43:53;;;;;;;11.57;2.90;;;;;;;;;;6339569;22;20110;-83
2023/01/09 07:46:19;;;;;;;9.85;3.10;;;;;;;;;;6338688;22;20365;-83
2023/01/09 07:48:45;;;;;;;12.50;3.15;;;;;;;;;;6309268;22;20050;-84
2023/01/09 07:51:12;;;;;;;9.43;3.10;;;;;;;;;;6337302;22;20027;-83
2023/01/09 07:53:38;;;;;;;8.60;3.30;;;;;;;;;;6309019;22;20015;-83
2023/01/09 07:56:05;;;;;;;10.32;3.40;;;;;;;;;;6339772;22;20054;-83
2023/01/09 07:58:31;;;;;;;9.93;3.92;;;;;;;;;;6310215;22;20080;-82
2023/01/09 08:00:58;;;;;;;12.00;4.57;;;;;;;;;;6337438;22;20105;-83
2023/01/09 08:03:25;;;;;;;10.98;3.45;;;;;;;;;;6336514;22;20018;-83
2023/01/09 08:05:52;;;;;;;10.93;3.38;;;;;;;;;;6308687;22;20472;-83
2023/01/09 08:08:18;;;;;;;5.95;2.50;;;;;;;;;;6336887;22;20491;-84
2023/01/09 08:10:44;;;;;;;5.57;2.05;;;;;;;;;;6337299;22;20031;-83
2023/01/09 08:13:11;;;;;;;5.30;2.05;;;;;;;;;;6334808;22;20019;-85
2023/01/09 08:15:37;;;;;;;5.90;1.83;;;;;;;;;;6336763;22;20051;-83
2023/01/09 08:18:04;;;;;;;4.22;1.02;;;;;;;;;;6309478;22;20027;-82
2023/01/09 08:20:30;;;;;;;3.67;1.00;;;;;;;;;;6337238;22;20379;-83
2023/01/09 08:22:57;;;;;;;4.88;1.05;;;;;;;;;;6308625;22;20026;-83
2023/01/09 08:25:23;;;;;;;1.88;0.70;;;;;;;;;;6337763;22;20623;-84
2023/01/09 08:27:50;;;;;;;5.38;1.20;;;;;;;;;;6337123;22;20019;-84
2023/01/09 08:30:16;;;;;;;5.35;1.30;;;;;;;;;;6337476;22;20062;-83
2023/01/09 08:32:47;;;;;;;3.85;1.45;;;;;;;;;;6309434;22;20023;-83
2023/01/09 08:35:13;;;;;;;3.80;1.40;;;;;;;;;;6336616;22;20023;-83
2023/01/09 08:37:42;;;;;;;6.20;1.90;;;;;;;;;;6308344;22;20032;-83
2023/01/09 08:40:09;;;;;;;5.53;1.95;;;;;;;;;;6337735;22;20150;-85
2023/01/09 08:48:06;;;;;;;7.57;2.45;;;;;;;;;;6336970;22;20020;-85
2023/01/09 08:50:32;;;;;;;8.35;2.00;;;;;;;;;;6336048;22;20483;-83
2023/01/09 08:52:58;;;;;;;4.78;1.80;;;;;;;;;;6337234;22;20030;-83
2023/01/09 08:55:25;;;;;;;4.72;1.92;;;;;;;;;;6335332;22;20149;-82
2023/01/09 08:57:52;;;;;;;8.20;2.22;;;;;;;;;;6336546;22;20012;-84
2023/01/09 09:00:20;;;;;;;7.45;2.22;;;;;;;;;;6309777;22;20829;-82
2023/01/09 09:02:53;;;;;;;5.53;2.15;;;;;;;;;;6309432;22;20513;-84
2023/01/09 09:05:20;;;;;;;7.03;2.40;;;;;;;;;;6334196;22;20084;-83
2023/01/09 09:07:48;;;;;;;7.32;3.20;;;;;;;;;;6307965;22;20024;-84
2023/01/09 09:10:15;;;;;;;11.00;3.10;;;;;;;;;;6336712;22;20481;-83
2023/01/09 09:12:42;;;;;;;6.57;2.58;;;;;;;;;;6338081;22;20451;-83
2023/01/09 09:15:12;;;;;;;10.00;3.08;;;;;;;;;;6336381;22;20722;-84
2023/01/09 09:17:39;;;;;;;10.57;3.20;;;;;;;;;;6336213;22;20031;-84
2023/01/09 09:20:06;;;;;;;11.20;3.53;;;;;;;;;;6335734;22;20018;-84
2023/01/09 09:22:32;;;;;;;7.18;2.60;;;;;;;;;;6336823;22;20450;-83
2023/01/09 09:24:58;;;;;;;11.38;2.33;;;;;;;;;;6336518;22;20476;-83
2023/01/09 09:27:25;;;;;;;6.90;2.63;;;;;;;;;;6335905;22;20026;-84
2023/01/09 09:29:51;;;;;;;8.77;2.88;;;;;;;;;;6337169;22;20057;-83
2023/01/09 09:32:17;;;;;;;9.10;2.45;;;;;;;;;;6338002;22;20479;-85
2023/01/09 09:34:44;;;;;;;8.98;2.47;;;;;;;;;;6338643;22;20025;-84
2023/01/09 09:37:10;;;;;;;11.63;3.35;;;;;;;;;;6338059;22;20023;-84
2023/01/09 09:39:37;;;;;;;8.75;2.17;;;;;;;;;;6340952;22;20027;-84
2023/01/09 09:45:13;;;;;;;7.13;1.60;;;;;;;;;;6340824;22;20080;-84
2023/01/09 09:48:06;;;;;;;7.95;1.88;;;;;;;;;;6313914;22;20488;-86
2023/01/09 09:50:33;;;;;;;9.15;1.85;;;;;;;;;;6343438;22;20429;-86
2023/01/09 09:53:16;;;;;;;6.53;1.38;;;;;;;;;;6346593;22;20106;-88
2023/01/09 09:55:44;;;;;;;5.30;1.35;;;;;;;;;;6341148;22;20023;-86
2023/01/09 09:58:16;;;;;;;7.65;1.50;;;;;;;;;;6310550;22;20078;-86
2023/01/09 10:00:42;;;;;;;10.68;2.22;;;;;;;;;;6341270;22;20019;-84
2023/01/09 10:03:20;;;;;;;12.63;2.03;;;;;;;;;;6349174;22;20019;-84
2023/01/09 10:06:01;;;;;;;12.85;2.25;;;;;;;;;;6347638;22;20319;-84
2023/01/09 10:08:38;;;;;;;11.18;3.05;;;;;;;;;;6342809;22;20102;-83
2023/01/09 10:11:07;;;;;;;16.90;2.17;;;;;;;;;;6341686;22;20027;-83
2023/01/09 10:16:20;;;;;;;14.10;2.25;;;;;;;;;;6345870;22;20024;-83
2023/01/09 10:18:59;;;;;;;10.27;1.92;;;;;;;;;;6313188;22;20077;-83
2023/01/09 10:21:38;;;;;;;14.82;2.33;;;;;;;;;;6345512;22;20011;-83
2023/01/09 10:24:13;;;;;;;13.30;2.00;;;;;;;;;;6343487;22;20016;-83
2023/01/09 10:26:45;;;;;;;17.75;1.95;;;;;;;;;;6344516;22;20054;-83
2023/01/09 10:29:18;;;;;;;6.95;1.67;;;;;;;;;;6318199;22;20046;-83
2023/01/09 10:31:44;;;;;;;11.20;1.77;;;;;;;;;;6316477;22;20054;-83
2023/01/09 10:34:26;;;;;;;11.98;1.38;;;;;;;;;;6344612;22;20019;-84
2023/01/09 10:36:58;;;;;;;15.63;1.95;;;;;;;;;;6314341;22;20030;-84
2023/01/09 10:39:30;;;;;;;9.95;1.30;;;;;;;;;;6314625;22;20046;-85
2023/01/09 10:42:03;;;;;;;17.13;2.20;;;;;;;;;;6341114;22;20031;-84
2023/01/09 10:44:38;;;;;;;12.30;2.45;;;;;;;;;;6338733;22;20100;-83
2023/01/09 10:47:14;;;;;;;16.13;2.10;;;;;;;;;;6341508;22;20042;-83
2023/01/09 10:49:40;;;;;;;9.27;1.60;;;;;;;;;;6342414;22;20015;-84
2023/01/09 10:52:19;;;;;;;14.68;1.90;;;;;;;;;;6341338;22;20065;-83
2023/01/09 10:54:48;;;;;;;8.57;1.60;;;;;;;;;;6342155;22;20027;-83
2023/01/09 10:57:22;;;;;;;6.65;1.50;;;;;;;;;;6339652;22;20446;-84
2023/01/09 10:59:49;;;;;;;11.10;1.42;;;;;;;;;;6312888;22;20408;-87
2023/01/09 11:02:27;;;;;;;8.63;1.25;;;;;;;;;;6344972;22;20026;-86
2023/01/09 11:04:54;;;;;;;10.90;1.30;;;;;;;;;;6339852;22;20106;-85
2023/01/09 11:07:25;;;;;;;;;;;;;;;;;;6338861;22;20030;-84
2023/01/09 11:10:01;;;;;;;4.93;0.90;;;;;;;;;;6338833;22;44216;-84
2023/01/09 11:12:29;;;;;;;5.90;0.73;;;;;;;;;;6339210;22;20029;-84
2023/01/09 11:15:15;;;;;;;3.38;0.98;;;;;;;;;;6338714;22;20031;-84
2023/01/09 11:17:42;;;;;;;7.22;1.13;;;;;;;;;;6340376;22;20476;-84
2023/01/09 11:20:21;;;;;;;6.32;0.90;;;;;;;;;;6341062;22;20106;-84
2023/01/09 11:22:49;;;;;;;7.80;1.00;;;;;;;;;;6340714;22;20063;-84
2023/01/09 11:25:17;;;;;;;7.70;1.20;;;;;;;;;;6341630;22;20106;-83
2023/01/09 11:28:02;;;;;;;9.63;1.38;;;;;;;;;;6338120;22;20464;-84
2023/01/09 11:30:29;;;;;;;5.82;1.10;;;;;;;;;;6311389;22;20023;-84
2023/01/09 11:32:56;;;;;;;7.22;1.40;;;;;;;;;;6339443;22;20046;-83
2023/01/09 11:35:27;;;;;;;10.45;1.75;;;;;;;;;;6338505;22;20055;-84
2023/01/09 11:38:14;;;;;;;7.75;2.60;;;;;;;;;;6311930;22;20085;-83
2023/01/09 11:40:51;;;;;;;8.40;1.60;;;;;;;;;;6338745;22;20063;-83
2023/01/09 11:43:20;;;;;;;8.52;1.90;;;;;;;;;;6336961;22;20023;-83
2023/01/09 11:45:55;;;;;;;8.70;1.80;;;;;;;;;;6336301;22;20023;-84
2023/01/09 11:48:37;;;;;;;11.73;1.90;;;;;;;;;;6309899;22;20019;-85
2023/01/09 11:51:06;;;;;;;9.43;1.67;;;;;;;;;;6337398;22;20023;-83
2023/01/09 11:53:48;;;;;;;5.72;1.52;;;;;;;;;;6335499;22;20019;-83
2023/01/09 11:56:15;;;;;;;12.18;2.38;;;;;;;;;;6336075;22;20027;-83
2023/01/09 11:58:42;;;;;;;12.27;2.33;;;;;;;;;;6335769;22;20462;-84
2023/01/09 12:01:08;;;;;;;8.85;1.70;;;;;;;;;;6336550;22;20223;-84
2023/01/09 12:03:54;;;;;;;9.38;2.10;;;;;;;;;;6309971;22;20057;-84
2023/01/09 12:06:32;;;;;;;11.05;2.15;;;;;;;;;;6335596;22;20077;-83
2023/01/09 12:09:06;;;;;;;9.55;2.05;;;;;;;;;;6337972;22;20417;-82
2023/01/09 12:11:36;;;;;;;16.02;1.98;;;;;;;;;;6339183;22;20533;-83
2023/01/09 12:14:02;;;;;;;15.88;2.40;;;;;;;;;;6341512;22;20023;-83
2023/01/09 12:16:49;;;;;;;9.00;2.25;;;;;;;;;;6340121;22;20118;-84
2023/01/09 12:19:22;;;;;;;14.95;2.45;;;;;;;;;;6305635;22;20023;-87
2023/01/09 12:21:48;;;;;;;10.40;2.60;;;;;;;;;;6337284;22;20094;-85
2023/01/09 12:24:33;;;;;;;8.68;1.48;;;;;;;;;;6309031;22;20031;-82
2023/01/09 12:27:00;;;;;;;9.10;1.77;;;;;;;;;;6335934;22;20042;-82
2023/01/09 12:29:36;;;;;;;6.72;1.70;;;;;;;;;;6309063;22;20081;-83
2023/01/09 12:32:10;;;;;;;13.30;1.75;;;;;;;;;;6308416;22;20026;-82
2023/01/09 12:34:57;;;;;;;5.88;1.80;;;;;;;;;;6336017;22;20102;-83
2023/01/09 12:37:36;;;;;;;9.52;1.83;;;;;;;;;;6307230;22;20027;-83
2023/01/09 12:40:08;;;;;;;9.88;2.38;;;;;;;;;;6334824;22;20041;-81
2023/01/09 12:42:52;;;;;;;8.50;2.08;;;;;;;;;;6336328;22;20549;-82
2023/01/09 12:45:37;;;;;;;9.70;2.03;;;;;;;;;;6308022;22;20442;-81
2023/01/09 12:48:15;;;;;;;13.50;2.70;;;;;;;;;;6334312;22;20334;-83
2023/01/09 12:50:53;;;;;;;11.02;2.50;;;;;;;;;;6335694;22;20020;-84
2023/01/09 12:53:24;;;;;;;18.20;3.22;;;;;;;;;;6336206;22;20657;-84
2023/01/09 12:56:04;;;;;;;12.48;2.33;;;;;;;;;;6337685;22;20023;-84
2023/01/09 12:58:43;;;;;;;14.48;2.17;;;;;;;;;;6308367;22;20019;-84
2023/01/09 13:01:13;;;;;;;12.88;1.98;;;;;;;;;;6338830;22;20533;-82
2023/01/09 13:03:43;;;;;;;13.13;2.53;;;;;;;;;;6338583;22;20046;-83
2023/01/09 13:06:13;;;;;;;12.70;2.45;;;;;;;;;;6338057;22;20126;-82
2023/01/09 13:08:41;;;;;;;10.13;1.95;;;;;;;;;;6337279;22;20034;-83
2023/01/09 13:11:11;;;;;;;14.00;2.00;;;;;;;;;;6338308;22;20020;-83
2023/01/09 13:13:53;;;;;;;11.02;1.90;;;;;;;;;;6338589;22;20034;-83
2023/01/09 13:16:22;;;;;;;10.25;2.08;;;;;;;;;;6338997;22;20027;-83
2023/01/09 13:18:51;;;;;;;9.68;2.05;;;;;;;;;;6337791;22;20027;-83
2023/01/09 13:21:18;;;;;;;13.18;2.20;;;;;;;;;;6310711;22;20019;-82
2023/01/09 13:24:09;;;;;;;10.90;1.60;;;;;;;;;;6338523;22;20464;-82
2023/01/09 13:26:45;;;;;;;15.45;2.70;;;;;;;;;;6336832;22;20515;-82
2023/01/09 13:29:11;;;;;;;14.02;2.08;;;;;;;;;;6338923;22;20020;-84
2023/01/09 13:31:49;;;;;;;9.75;1.85;;;;;;;;;;6337453;22;20028;-84
2023/01/09 13:34:23;;;;;;;8.68;1.60;;;;;;;;;;6336428;22;20098;-84
2023/01/09 13:36:51;;;;;;;8.55;2.15;;;;;;;;;;6338013;22;20027;-85
2023/01/09 13:39:31;;;;;;;8.90;1.92;;;;;;;;;;6337250;22;20448;-82
2023/01/09 13:45:15;;;;;;;9.73;1.98;;;;;;;;;;6271779;22;20263;-83
2023/01/09 13:47:42;;;;;;;8.48;1.67;;;;;;;;;;6329919;22;20058;-82
2023/01/09 13:50:09;;;;;;;9.43;1.60;;;;;;;;;;6310170;22;20019;-85
2023/01/09 13:52:36;;;;;;;9.88;1.85;;;;;;;;;;6337023;22;20491;-83
2023/01/09 13:55:15;;;;;;;12.55;1.77;;;;;;;;;;6338072;22;20067;-83
2023/01/09 13:58:06;;;;;;;13.75;2.20;;;;;;;;;;6337968;22;20023;-85
2023/01/09 14:00:36;;;;;;;6.22;1.60;;;;;;;;;;6323059;22;20019;-82
2023/01/09 14:03:18;;;;;;;11.80;2.03;;;;;;;;;;6310820;22;20023;-83
2023/01/09 14:05:44;;;;;;;13.07;2.00;;;;;;;;;;6337078;22;20031;-84
2023/01/09 14:08:13;;;;;;;11.73;1.95;;;;;;;;;;6336096;22;20102;-84
2023/01/09 14:10:42;;;;;;;18.58;2.33;;;;;;;;;;6337392;22;20067;-83
2023/01/09 14:13:29;;;;;;;9.13;2.40;;;;;;;;;;6336880;22;20026;-83
2023/01/09 14:16:10;;;;;;;19.58;4.50;;;;;;;;;;6337026;22;20119;-82
2023/01/09 14:18:39;;;;;;;8.15;1.90;;;;;;;;;;6309884;22;20030;-83
2023/01/09 14:21:08;;;;;;;13.23;2.83;;;;;;;;;;6337770;22;20113;-84
2023/01/09 14:23:45;;;;;;;11.77;2.55;;;;;;;;;;6309794;22;20499;-83
2023/01/09 14:26:20;;;;;;;11.48;2.17;;;;;;;;;;6311295;22;20421;-83
2023/01/09 14:28:46;;;;;;;9.60;1.70;;;;;;;;;;6309997;22;20527;-83
2023/01/09 14:31:31;;;;;;;9.23;1.63;;;;;;;;;;6337299;22;20023;-84
2023/01/09 14:34:19;;;;;;;7.82;1.52;;;;;;;;;;6336989;22;20020;-81
2023/01/09 14:36:58;;;;;;;15.63;2.38;;;;;;;;;;6312300;22;20038;-83
2023/01/09 14:39:25;;;;;;;14.68;3.90;;;;;;;;;;6337477;22;20035;-83
2023/01/09 14:41:59;;;;;;;21.70;3.55;;;;;;;;;;6336305;22;20019;-84
2023/01/09 14:44:28;;;;;;;18.70;4.68;;;;;;;;;;6308645;22;20471;-81
2023/01/09 14:46:58;;;;;;;11.23;2.50;;;;;;;;;;6337562;22;20073;-83
2023/01/09 14:49:24;;;;;;;8.38;2.15;;;;;;;;;;6337931;22;20031;-84
2023/01/09 14:51:51;;;;;;;11.80;1.80;;;;;;;;;;6337668;22;20069;-83
2023/01/09 14:54:38;;;;;;;13.60;1.98;;;;;;;;;;6336597;22;20240;-82
2023/01/09 14:57:21;;;;;;;12.77;1.88;;;;;;;;;;6336139;22;20027;-83
2023/01/09 15:00:02;;;;;;;9.98;2.00;;;;;;;;;;6337016;22;20054;-82
2023/01/09 15:02:33;;;;;;;11.52;1.98;;;;;;;;;;6337979;22;20027;-81
2023/01/09 15:05:04;;;;;;;12.90;2.30;;;;;;;;;;6309572;22;20033;-81
2023/01/09 15:07:33;;;;;;;;;;;;;;;;;;6337270;22;20029;-86
2023/01/09 15:10:01;;;;;;;11.60;2.53;;;;;;;;;;6335244;22;46221;-84
2023/01/09 15:12:28;;;;;;;13.13;1.90;;;;;;;;;;6336796;22;20037;-84